Terminal Aerodrome Forecast
Issued by NWS North Platte, NE

Home | Current Version | Previous Version | Graphics & Text | Print | Product List | Glossary On
Versions: 1 2 3 4 5 6 7 8 9 10 11 12 13 14 15 16
578
FTUS43 KLBF 150520
TAFVTN
TAF
KVTN 150520Z 1506/1606 VRB05KT P6SM BKN250
     FM151600 35011KT P6SM BKN015
     FM151800 35016KT 6SM BR VCSH OVC015
     FM152100 35016G26KT 5SM BR VCSH OVC015
     FM160000 34015G24KT P6SM OVC020
     FM160400 33012G19KT P6SM BKN090=

USA.gov is the U.S. government's official web portal to all federal, state and local government web resources and services.